createdAt,value
2022-12-14T00:02:03.169Z,31.90
2022-12-14T00:04:31.688Z,38.83
2022-12-14T00:06:59.898Z,41.58
2022-12-14T00:09:28.093Z,40.38
2022-12-14T00:11:56.256Z,41.00
2022-12-14T00:14:25.995Z,37.53
2022-12-14T00:16:54.286Z,31.23
2022-12-14T00:19:22.498Z,25.70
2022-12-14T00:21:50.622Z,21.80
2022-12-14T00:24:18.832Z,19.33
2022-12-14T00:26:46.961Z,21.35
2022-12-14T00:29:15.189Z,23.85
2022-12-14T00:31:44.803Z,19.38
2022-12-14T00:34:17.326Z,19.08
2022-12-14T00:36:46.364Z,20.67
2022-12-14T00:39:14.581Z,17.05
2022-12-14T00:41:43.320Z,19.50
2022-12-14T00:44:11.488Z,18.70
2022-12-14T00:46:39.866Z,21.52
2022-12-14T00:49:09.981Z,19.40
2022-12-14T00:51:38.892Z,19.50
2022-12-14T00:54:07.215Z,17.30
2022-12-14T00:56:35.518Z,21.35
2022-12-14T00:59:03.967Z,23.10
2022-12-14T01:01:32.261Z,24.80
2022-12-14T01:04:14.464Z,25.70
2022-12-14T01:06:44.242Z,26.10
2022-12-14T01:09:12.683Z,23.70
2022-12-14T01:11:41.324Z,20.73
2022-12-14T01:14:09.818Z,19.23
2022-12-14T01:16:38.077Z,19.00
2022-12-14T01:19:07.074Z,15.88
2022-12-14T01:21:35.919Z,17.90
2022-12-14T01:24:07.104Z,19.35
2022-12-14T01:26:39.226Z,13.52
2022-12-14T01:29:09.038Z,20.88
2022-12-14T01:31:39.160Z,15.32
2022-12-14T01:34:08.309Z,15.35
2022-12-14T01:36:37.404Z,18.85
2022-12-14T01:39:10.811Z,23.33
2022-12-14T01:41:40.779Z,20.20
2022-12-14T01:44:38.615Z,17.63
2022-12-14T01:47:12.947Z,17.15
2022-12-14T01:49:47.414Z,16.10
2022-12-14T01:52:20.396Z,13.48
2022-12-14T01:54:55.916Z,14.88
2022-12-14T01:57:27.860Z,15.38
2022-12-14T02:00:03.771Z,14.77
2022-12-14T02:02:36.714Z,11.35
2022-12-14T02:05:07.751Z,13.23
2022-12-14T02:07:36.159Z,14.10
2022-12-14T02:10:08.286Z,11.82
2022-12-14T02:12:40.256Z,15.98
2022-12-14T02:15:09.389Z,13.98
2022-12-14T02:17:37.600Z,15.25
2022-12-14T02:20:06.804Z,15.45
2022-12-14T02:23:08.850Z,14.60
2022-12-14T02:26:10.191Z,13.88
2022-12-14T02:29:24.793Z,13.13
2022-12-14T02:32:04.823Z,14.30
2022-12-14T02:34:48.515Z,11.88
2022-12-14T02:37:24.247Z,17.38
2022-12-14T02:40:02.240Z,17.02
2022-12-14T02:42:42.758Z,12.32
2022-12-14T02:45:17.330Z,12.27
2022-12-14T02:47:54.641Z,16.70
2022-12-14T02:50:31.014Z,12.52
2022-12-14T02:53:05.470Z,12.02
2022-12-14T02:55:38.058Z,11.52
2022-12-14T02:58:12.035Z,14.55
2022-12-14T03:00:42.278Z,11.73
2022-12-14T03:03:10.529Z,12.90
2022-12-14T03:05:38.728Z,13.18
2022-12-14T03:08:09.962Z,13.70
2022-12-14T03:10:43.425Z,14.93
2022-12-14T03:13:19.023Z,16.58
2022-12-14T03:15:56.053Z,13.68
2022-12-14T03:18:28.579Z,15.52
2022-12-14T03:20:58.990Z,16.70
2022-12-14T03:23:32.483Z,15.10
2022-12-14T03:26:07.541Z,14.23
2022-12-14T03:28:43.070Z,17.33
2022-12-14T03:31:17.485Z,11.48
2022-12-14T03:33:48.973Z,14.43
2022-12-14T03:36:25.625Z,17.58
2022-12-14T03:38:57.402Z,12.20
2022-12-14T03:41:35.728Z,14.65
2022-12-14T03:44:15.470Z,13.27
2022-12-14T03:46:56.454Z,12.27
2022-12-14T03:49:40.665Z,14.25
2022-12-14T03:52:15.724Z,13.13
2022-12-14T03:54:52.111Z,14.90
2022-12-14T03:57:31.969Z,12.27
2022-12-14T04:00:05.242Z,15.85
2022-12-14T04:02:50.387Z,14.20
2022-12-14T04:05:25.273Z,11.48
2022-12-14T04:08:01.415Z,16.98
2022-12-14T04:10:52.997Z,14.43
2022-12-14T04:13:43.928Z,11.32
2022-12-14T04:16:41.212Z,11.40
2022-12-14T04:19:17.642Z,11.15
2022-12-14T04:21:50.632Z,13.52
2022-12-14T04:24:43.187Z,13.68
2022-12-14T04:27:17.224Z,11.98
2022-12-14T04:30:00.454Z,11.90
2022-12-14T04:32:34.589Z,13.52
2022-12-14T04:35:10.486Z,10.93
2022-12-14T04:37:41.481Z,11.90
2022-12-14T04:40:13.253Z,11.60
2022-12-14T04:42:47.575Z,14.25
2022-12-14T04:45:20.506Z,13.23
2022-12-14T04:47:56.948Z,12.05
2022-12-14T04:50:32.322Z,12.93
2022-12-14T04:53:06.547Z,12.50
2022-12-14T04:55:39.773Z,14.73
2022-12-14T04:58:14.608Z,13.88
2022-12-14T05:00:59.547Z,13.00
2022-12-14T05:03:32.357Z,14.88
2022-12-14T05:06:10.346Z,14.30
2022-12-14T05:09:05.575Z,17.52
2022-12-14T05:11:53.057Z,16.10
2022-12-14T05:14:28.004Z,17.08
2022-12-14T05:16:57.340Z,18.00
2022-12-14T05:19:26.833Z,17.20
2022-12-14T05:21:56.825Z,19.02
2022-12-14T05:24:25.101Z,16.23
2022-12-14T05:26:53.258Z,14.15
2022-12-14T05:29:21.497Z,14.32
2022-12-14T05:31:50.049Z,13.63
2022-12-14T05:34:18.801Z,16.15
2022-12-14T05:36:47.020Z,15.65
2022-12-14T05:39:17.451Z,16.58
2022-12-14T05:41:45.998Z,17.88
2022-12-14T05:44:14.258Z,16.38
2022-12-14T05:46:42.532Z,15.07
2022-12-14T05:49:10.918Z,14.70
2022-12-14T05:51:39.102Z,14.35
2022-12-14T05:54:07.391Z,14.73
2022-12-14T05:56:36.989Z,18.98
2022-12-14T05:59:05.281Z,18.83
2022-12-14T06:01:33.494Z,12.40
2022-12-14T06:04:01.789Z,17.38
2022-12-14T06:06:30.066Z,22.40
2022-12-14T06:08:58.314Z,17.70
2022-12-14T06:11:26.495Z,20.02
2022-12-14T06:13:56.475Z,19.92
2022-12-14T06:16:28.021Z,16.98
2022-12-14T06:18:58.047Z,14.40
2022-12-14T06:21:29.294Z,18.45
2022-12-14T06:23:58.348Z,19.17
2022-12-14T06:26:28.071Z,18.08
2022-12-14T06:28:58.784Z,17.85
2022-12-14T06:31:29.166Z,20.98
2022-12-14T06:33:59.520Z,17.27
2022-12-14T06:36:29.862Z,19.25
2022-12-14T06:39:01.325Z,17.98
2022-12-14T06:41:30.030Z,19.98
2022-12-14T06:44:05.516Z,19.23
2022-12-14T06:46:34.420Z,21.80
2022-12-14T06:49:03.410Z,24.05
2022-12-14T06:51:32.218Z,20.35
2022-12-14T06:54:00.485Z,25.75
2022-12-14T06:56:29.371Z,25.48
2022-12-14T06:58:59.559Z,24.73
2022-12-14T07:01:28.842Z,24.50
2022-12-14T07:03:59.179Z,24.83
2022-12-14T07:06:29.404Z,27.33
2022-12-14T07:09:00.107Z,29.80
2022-12-14T07:11:29.724Z,28.13
2022-12-14T07:14:00.757Z,22.58
2022-12-14T07:16:30.529Z,26.75
2022-12-14T07:18:59.204Z,30.83
2022-12-14T07:21:28.100Z,29.52
2022-12-14T07:23:56.568Z,31.08
2022-12-14T07:26:26.704Z,27.38
2022-12-14T07:28:55.824Z,27.88
2022-12-14T07:31:28.251Z,31.35
2022-12-14T07:33:58.582Z,28.90
2022-12-14T07:36:28.489Z,32.40
2022-12-14T07:38:57.134Z,39.80
2022-12-14T07:41:29.583Z,27.48
2022-12-14T07:43:59.604Z,33.92
2022-12-14T07:46:32.072Z,30.63
2022-12-14T07:49:01.602Z,30.13
2022-12-14T07:51:32.226Z,32.42
2022-12-14T07:54:01.535Z,31.45
2022-12-14T07:56:31.845Z,28.85
2022-12-14T07:59:01.063Z,29.08
2022-12-14T08:01:32.015Z,30.30
2022-12-14T08:04:05.125Z,32.22
2022-12-14T08:06:33.945Z,28.40
2022-12-14T08:09:02.814Z,43.33
2022-12-14T08:11:31.314Z,35.78
2022-12-14T08:14:01.796Z,38.08
2022-12-14T08:16:32.983Z,28.85
2022-12-14T08:19:02.263Z,28.85
2022-12-14T08:21:31.030Z,35.80
2022-12-14T08:23:59.355Z,34.83
2022-12-14T08:26:33.498Z,33.63
2022-12-14T08:29:04.824Z,36.60
2022-12-14T08:31:35.155Z,29.08
2022-12-14T08:34:05.049Z,37.10
2022-12-14T08:36:35.256Z,33.28
2022-12-14T08:39:06.118Z,35.17
2022-12-14T08:41:34.401Z,29.75
2022-12-14T08:44:04.631Z,27.73
2022-12-14T08:46:37.584Z,33.70
2022-12-14T08:49:06.544Z,34.80
2022-12-14T08:51:37.505Z,33.08
2022-12-14T08:54:05.873Z,33.15
2022-12-14T08:56:34.084Z,30.05
2022-12-14T08:59:02.329Z,29.85
2022-12-14T09:01:33.910Z,30.77
2022-12-14T09:04:06.303Z,27.83
2022-12-14T09:06:36.907Z,31.80
2022-12-14T09:09:09.151Z,36.88
2022-12-14T09:11:41.748Z,29.50
2022-12-14T09:14:10.827Z,31.75
2022-12-14T09:16:40.264Z,30.92
2022-12-14T09:19:10.020Z,35.63
2022-12-14T09:21:39.856Z,35.00
2022-12-14T09:24:08.408Z,32.95
2022-12-14T09:26:37.678Z,34.97
2022-12-14T09:29:06.476Z,40.40
2022-12-14T09:31:34.787Z,37.40
2022-12-14T09:34:04.037Z,29.55
2022-12-14T09:36:33.645Z,28.23
2022-12-14T09:39:01.827Z,28.92
2022-12-14T09:41:43.151Z,32.47
2022-12-14T09:44:18.943Z,31.35
2022-12-14T09:46:57.390Z,37.28
2022-12-14T09:49:29.546Z,33.80
2022-12-14T09:52:02.273Z,33.90
2022-12-14T09:54:34.281Z,39.40
2022-12-14T09:57:08.958Z,33.45
2022-12-14T09:59:37.166Z,38.95
2022-12-14T10:02:33.666Z,34.53
2022-12-14T10:05:15.820Z,33.10
2022-12-14T10:07:53.870Z,31.27
2022-12-14T10:10:27.597Z,32.70
2022-12-14T10:13:04.723Z,33.50
2022-12-14T10:15:41.043Z,28.70
2022-12-14T10:18:59.174Z,32.92
2022-12-14T10:21:40.282Z,23.17
2022-12-14T10:24:17.218Z,23.38
2022-12-14T10:26:50.295Z,26.02
2022-12-14T10:29:23.858Z,22.63
2022-12-14T10:32:00.262Z,21.33
2022-12-14T10:34:30.953Z,20.05
2022-12-14T10:37:12.283Z,20.55
2022-12-14T10:39:50.336Z,24.17
2022-12-14T10:42:30.154Z,19.77
2022-12-14T10:45:38.997Z,19.08
2022-12-14T10:48:12.760Z,21.90
2022-12-14T10:50:54.236Z,18.38
2022-12-14T10:53:29.497Z,19.40
2022-12-14T10:56:03.191Z,18.70
2022-12-14T10:58:31.911Z,20.30
2022-12-14T11:01:00.340Z,21.92
2022-12-14T11:03:29.737Z,25.45
2022-12-14T11:06:05.007Z,25.55
2022-12-14T11:08:42.247Z,20.77
2022-12-14T11:11:19.270Z,23.58
2022-12-14T11:13:53.481Z,26.60
2022-12-14T11:16:35.496Z,24.40
2022-12-14T11:19:05.629Z,19.33
2022-12-14T11:21:36.719Z,20.70
2022-12-14T11:24:06.460Z,23.02
2022-12-14T11:26:40.549Z,21.17
2022-12-14T11:29:19.499Z,21.90
2022-12-14T11:31:49.401Z,21.80
2022-12-14T11:34:24.498Z,21.20
2022-12-14T11:36:52.870Z,22.55
2022-12-14T11:39:23.916Z,20.27
2022-12-14T11:42:02.470Z,22.10
2022-12-14T11:44:33.866Z,19.30
2022-12-14T11:47:06.000Z,21.55
2022-12-14T11:49:37.097Z,18.55
2022-12-14T11:52:12.140Z,20.15
2022-12-14T11:54:42.538Z,18.00
2022-12-14T11:57:26.064Z,18.60
2022-12-14T11:59:57.826Z,19.98
2022-12-14T12:02:30.276Z,19.55
2022-12-14T12:05:03.761Z,19.05
2022-12-14T12:07:34.273Z,18.77
2022-12-14T12:10:06.772Z,19.63
2022-12-14T12:12:36.870Z,19.20
2022-12-14T12:15:06.484Z,17.80
2022-12-14T12:17:41.077Z,16.92
2022-12-14T12:20:23.513Z,17.80
2022-12-14T12:22:58.169Z,15.95
2022-12-14T12:25:36.959Z,17.10
2022-12-14T12:28:16.977Z,20.17
2022-12-14T12:30:50.755Z,18.65
2022-12-14T12:33:33.476Z,16.52
2022-12-14T12:36:05.838Z,14.85
2022-12-14T12:38:49.770Z,15.60
2022-12-14T12:41:34.130Z,15.05
2022-12-14T12:44:17.812Z,13.40
2022-12-14T12:47:22.980Z,16.25
2022-12-14T12:49:43.411Z,14.50
2022-12-14T12:52:20.311Z,12.85
2022-12-14T12:54:57.934Z,15.98
2022-12-14T12:57:33.438Z,13.93
2022-12-14T13:00:05.854Z,15.93
2022-12-14T13:02:37.093Z,13.73
2022-12-14T13:05:44.692Z,18.95
2022-12-14T13:08:07.045Z,14.05
2022-12-14T13:10:50.662Z,14.02
2022-12-14T13:13:33.640Z,15.70
2022-12-14T13:16:13.095Z,13.52
2022-12-14T13:21:36.252Z,16.23
2022-12-14T13:24:06.532Z,18.40
2022-12-14T13:26:59.380Z,17.33
2022-12-14T13:29:42.561Z,16.55
2022-12-14T13:32:23.107Z,14.98
2022-12-14T13:35:00.461Z,16.38
2022-12-14T13:37:44.888Z,16.73
2022-12-14T13:40:37.624Z,16.65
2022-12-14T13:43:19.718Z,17.08
2022-12-14T13:45:49.789Z,18.40
2022-12-14T13:48:24.936Z,16.65
2022-12-14T13:51:01.851Z,18.00
2022-12-14T13:53:36.286Z,22.48
2022-12-14T13:56:05.842Z,17.27
2022-12-14T13:58:39.922Z,20.65
2022-12-14T14:01:13.631Z,21.10
2022-12-14T14:03:46.269Z,20.40
2022-12-14T14:06:21.513Z,19.30
2022-12-14T14:08:50.961Z,16.70
2022-12-14T14:11:57.280Z,18.98
2022-12-14T14:14:48.807Z,14.18
2022-12-14T14:17:24.789Z,16.25
2022-12-14T14:19:57.296Z,17.92
2022-12-14T14:22:27.911Z,17.92
2022-12-14T14:25:01.983Z,17.50
2022-12-14T14:27:37.547Z,18.27
2022-12-14T14:30:26.120Z,18.73
2022-12-14T14:33:07.533Z,16.58
2022-12-14T14:35:43.485Z,16.40
2022-12-14T14:38:25.849Z,14.38
2022-12-14T14:41:16.022Z,18.00
2022-12-14T14:43:52.627Z,17.23
2022-12-14T14:46:35.343Z,15.55
2022-12-14T14:49:04.265Z,14.25
2022-12-14T14:51:36.897Z,17.33
2022-12-14T14:55:07.027Z,19.83
2022-12-14T14:57:55.583Z,21.15
2022-12-14T15:00:24.143Z,18.75
2022-12-14T15:02:54.336Z,20.70
2022-12-14T15:05:43.824Z,19.13
2022-12-14T15:08:21.107Z,21.20
2022-12-14T15:10:50.465Z,25.05
2022-12-14T15:13:22.351Z,21.25
2022-12-14T15:15:53.265Z,24.75
2022-12-14T15:18:24.246Z,21.70
2022-12-14T15:20:58.899Z,22.67
2022-12-14T15:23:34.469Z,22.75
2022-12-14T15:26:04.816Z,18.60
2022-12-14T15:28:33.300Z,23.58
2022-12-14T15:31:01.706Z,24.40
2022-12-14T15:33:34.333Z,19.38
2022-12-14T15:36:08.104Z,18.08
2022-12-14T15:38:38.281Z,21.52
2022-12-14T15:41:13.333Z,24.85
2022-12-14T15:43:44.870Z,34.22
2022-12-14T15:46:18.289Z,22.40
2022-12-14T15:48:47.098Z,18.88
2022-12-14T15:51:19.367Z,22.58
2022-12-14T15:53:50.991Z,28.33
2022-12-14T15:56:31.080Z,26.98
2022-12-14T15:59:01.225Z,27.02
2022-12-14T16:01:34.306Z,25.90
2022-12-14T16:04:05.867Z,24.38
2022-12-14T16:06:39.445Z,25.23
2022-12-14T16:09:17.820Z,28.05
2022-12-14T16:11:49.864Z,31.45
2022-12-14T16:14:24.575Z,25.20
2022-12-14T16:16:53.678Z,24.95
2022-12-14T16:19:29.633Z,27.10
2022-12-14T16:22:21.176Z,17.02
2022-12-14T16:25:19.813Z,16.00
2022-12-14T16:27:50.743Z,21.17
2022-12-14T16:30:29.937Z,23.25
2022-12-14T16:33:17.471Z,25.02
2022-12-14T16:35:47.333Z,23.45
2022-12-14T16:38:17.713Z,23.20
2022-12-14T16:40:55.349Z,24.75
2022-12-14T16:43:30.663Z,27.75
2022-12-14T16:46:11.883Z,24.73
2022-12-14T16:48:43.020Z,24.52
2022-12-14T16:51:44.799Z,24.90
2022-12-14T16:54:27.103Z,25.17
2022-12-14T16:57:01.252Z,21.85
2022-12-14T16:59:37.319Z,18.58
2022-12-14T17:02:06.505Z,23.83
2022-12-14T17:04:38.325Z,27.88
2022-12-14T17:07:06.595Z,22.30
2022-12-14T17:09:35.761Z,21.50
2022-12-14T17:12:15.333Z,26.67
2022-12-14T17:14:49.470Z,21.55
2022-12-14T17:17:23.022Z,19.23
2022-12-14T17:19:51.648Z,22.05
2022-12-14T17:22:26.229Z,18.38
2022-12-14T17:24:54.578Z,20.95
2022-12-14T17:27:26.743Z,21.40
2022-12-14T17:29:57.013Z,19.35
2022-12-14T17:32:29.306Z,22.92
2022-12-14T17:34:57.876Z,23.10
2022-12-14T17:37:32.447Z,25.40
2022-12-14T17:40:05.435Z,23.50
2022-12-14T17:42:35.809Z,32.47
2022-12-14T17:45:04.554Z,26.92
2022-12-14T17:47:32.809Z,29.48
2022-12-14T17:50:01.806Z,29.83
2022-12-14T17:52:33.371Z,25.00
2022-12-14T17:55:01.774Z,35.63
2022-12-14T17:57:30.053Z,25.95
2022-12-14T18:00:13.560Z,27.52
2022-12-14T18:02:45.526Z,31.02
2022-12-14T18:05:19.899Z,35.20
2022-12-14T18:07:49.892Z,29.23
2022-12-14T18:10:19.639Z,28.08
2022-12-14T18:12:48.046Z,26.00
2022-12-14T18:15:20.935Z,23.95
2022-12-14T18:17:49.646Z,28.17
2022-12-14T18:20:19.238Z,30.45
2022-12-14T18:22:49.601Z,23.27
2022-12-14T18:25:27.636Z,25.08
2022-12-14T18:27:56.107Z,29.55
2022-12-14T18:30:26.519Z,26.30
2022-12-14T18:32:55.733Z,28.52
2022-12-14T18:35:29.693Z,28.10
2022-12-14T18:37:58.551Z,25.52
2022-12-14T18:40:29.872Z,22.88
2022-12-14T18:42:58.663Z,26.20
2022-12-14T18:45:29.958Z,27.38
2022-12-14T18:47:59.180Z,26.67
2022-12-14T18:50:28.079Z,24.13
2022-12-14T18:53:18.054Z,32.03
2022-12-14T18:55:46.400Z,27.65
2022-12-14T18:58:17.503Z,24.90
2022-12-14T19:00:47.936Z,25.75
2022-12-14T19:03:16.394Z,20.63
2022-12-14T19:05:45.276Z,23.38
2022-12-14T19:08:14.366Z,24.45
2022-12-14T19:10:45.297Z,26.35
2022-12-14T19:13:21.760Z,26.40
2022-12-14T19:15:55.399Z,24.90
2022-12-14T19:18:23.726Z,23.77
2022-12-14T19:20:51.999Z,22.20
2022-12-14T19:23:20.960Z,22.35
2022-12-14T19:25:49.386Z,26.80
2022-12-14T19:28:32.103Z,26.35
2022-12-14T19:31:03.415Z,28.75
2022-12-14T19:33:32.693Z,25.33
2022-12-14T19:36:01.407Z,28.67
2022-12-14T19:38:29.959Z,24.00
2022-12-14T19:41:00.760Z,26.98
2022-12-14T19:43:30.265Z,26.98
2022-12-14T19:45:58.953Z,25.70
2022-12-14T19:48:28.576Z,29.92
2022-12-14T19:50:56.721Z,27.02
2022-12-14T19:53:24.897Z,27.55
2022-12-14T19:55:54.006Z,29.42
2022-12-14T19:58:24.963Z,27.27
2022-12-14T20:00:53.861Z,25.50
2022-12-14T20:03:22.612Z,26.83
2022-12-14T20:05:53.791Z,26.85
2022-12-14T20:08:22.464Z,22.67
2022-12-14T20:10:52.720Z,22.80
2022-12-14T20:13:21.372Z,21.27
2022-12-14T20:15:50.787Z,22.90
2022-12-14T20:18:19.411Z,28.90
2022-12-14T20:20:49.549Z,22.13
2022-12-14T20:23:21.522Z,21.45
2022-12-14T20:25:49.975Z,24.85
2022-12-14T20:28:18.198Z,22.80
2022-12-14T20:30:48.548Z,39.30
2022-12-14T20:33:16.747Z,23.48
2022-12-14T20:35:45.113Z,26.40
2022-12-14T20:38:13.349Z,21.63
2022-12-14T20:40:43.025Z,20.42
2022-12-14T20:43:11.205Z,25.10
2022-12-14T20:45:39.837Z,21.58
2022-12-14T20:48:08.717Z,26.55
2022-12-14T20:50:37.411Z,24.70
2022-12-14T20:53:06.490Z,23.30
2022-12-14T20:55:35.780Z,26.05
2022-12-14T20:58:05.786Z,26.73
2022-12-14T21:00:34.147Z,20.10
2022-12-14T21:03:03.470Z,26.35
2022-12-14T21:05:31.852Z,21.70
2022-12-14T21:08:00.026Z,24.90
2022-12-14T21:10:28.271Z,22.15
2022-12-14T21:12:56.553Z,21.48
2022-12-14T21:15:26.308Z,25.95
2022-12-14T21:17:54.515Z,23.38
2022-12-14T21:20:23.579Z,25.73
2022-12-14T21:22:51.761Z,24.52
2022-12-14T21:25:19.871Z,25.10
2022-12-14T21:27:48.059Z,20.85
2022-12-14T21:30:16.969Z,20.98
2022-12-14T21:32:46.540Z,26.77
2022-12-14T21:35:17.672Z,27.35
2022-12-14T21:37:46.080Z,22.05
2022-12-14T21:40:34.970Z,22.17
2022-12-14T21:43:03.039Z,24.17
2022-12-14T21:45:31.345Z,26.13
2022-12-14T21:48:00.935Z,19.52
2022-12-14T21:50:29.199Z,22.48
2022-12-14T21:52:57.562Z,21.58
2022-12-14T21:55:25.847Z,24.52
2022-12-14T21:58:11.161Z,27.23
2022-12-14T22:00:39.407Z,19.98
2022-12-14T22:03:09.163Z,21.77
2022-12-14T22:05:38.946Z,24.83
2022-12-14T22:08:07.231Z,21.25
2022-12-14T22:10:35.468Z,22.02
2022-12-14T22:13:03.630Z,20.55
2022-12-14T22:15:31.860Z,28.85
2022-12-14T22:18:00.051Z,28.17
2022-12-14T22:20:29.676Z,22.65
2022-12-14T22:22:57.978Z,25.52
2022-12-14T22:25:26.204Z,24.48
2022-12-14T22:27:54.417Z,25.35
2022-12-14T22:30:25.873Z,24.95
2022-12-14T22:32:57.006Z,23.67
2022-12-14T22:35:25.212Z,21.42
2022-12-14T22:37:55.220Z,22.85
2022-12-14T22:40:23.376Z,26.13
2022-12-14T22:42:51.536Z,26.50
2022-12-14T22:45:19.782Z,23.55
2022-12-14T22:47:48.085Z,21.92
2022-12-14T22:50:16.691Z,24.27
2022-12-14T22:52:44.887Z,26.80
2022-12-14T22:55:19.425Z,24.42
2022-12-14T22:57:48.822Z,25.67
2022-12-14T23:00:17.618Z,25.63
2022-12-14T23:02:48.256Z,23.20
2022-12-14T23:05:17.757Z,22.00
2022-12-14T23:07:45.981Z,24.27
2022-12-14T23:10:31.415Z,22.17
2022-12-14T23:13:18.270Z,28.05
2022-12-14T23:16:03.816Z,27.13
2022-12-14T23:18:49.200Z,23.77
2022-12-14T23:21:34.556Z,24.40
2022-12-14T23:24:20.106Z,22.85
2022-12-14T23:27:09.612Z,26.10
2022-12-14T23:29:57.147Z,28.88
2022-12-14T23:32:43.025Z,27.70
2022-12-14T23:35:28.519Z,25.40
2022-12-14T23:38:14.112Z,32.60
2022-12-14T23:40:59.729Z,30.75
2022-12-14T23:43:45.219Z,26.50
2022-12-14T23:46:32.255Z,23.38
2022-12-14T23:49:18.068Z,33.72
2022-12-14T23:52:03.733Z,24.40
2022-12-14T23:54:49.729Z,25.77
2022-12-14T23:57:35.588Z,23.88
